createdAt,value
2023-04-29T00:00:54.765Z,99791.78
2023-04-29T00:05:56.414Z,99777.38
2023-04-29T00:10:58.001Z,99762.13
2023-04-29T00:15:59.481Z,99769.41
2023-04-29T00:21:00.926Z,99759.31
2023-04-29T00:26:02.720Z,99763.53
2023-04-29T00:31:04.222Z,99761.72
2023-04-29T00:36:05.817Z,99761.56
2023-04-29T00:41:07.359Z,99763.41
2023-04-29T00:46:09.896Z,99759.59
2023-04-29T00:51:11.692Z,99759.16
2023-04-29T00:56:14.985Z,99748.91
2023-04-29T01:01:17.251Z,99753.31
2023-04-29T01:06:59.258Z,99738.94
2023-04-29T01:12:16.317Z,99743.78
2023-04-29T01:17:23.764Z,99737.38
2023-04-29T01:22:25.801Z,99743.22
2023-04-29T01:27:35.854Z,99733.63
2023-04-29T01:32:54.154Z,99736.06
2023-04-29T01:38:13.983Z,99738.06
2023-04-29T01:43:16.030Z,99746.03
2023-04-29T01:48:18.245Z,99752.03
2023-04-29T01:53:19.753Z,99745.50
2023-04-29T01:58:21.228Z,99748.03
2023-04-29T02:03:22.895Z,99743.59
2023-04-29T02:08:24.569Z,99735.50
2023-04-29T02:13:26.752Z,99730.22
2023-04-29T02:18:28.221Z,99734.88
2023-04-29T02:23:30.290Z,99735.16
2023-04-29T02:28:32.328Z,99734.59
2023-04-29T02:33:34.057Z,99723.50
2023-04-29T02:38:35.465Z,99720.63
2023-04-29T02:43:36.884Z,99722.34
2023-04-29T02:48:38.455Z,99723.91
2023-04-29T02:53:40.086Z,99720.06
2023-04-29T02:58:42.310Z,99720.91
2023-04-29T03:03:43.869Z,99707.56
2023-04-29T03:08:45.612Z,99704.16
2023-04-29T03:13:47.550Z,99703.00
2023-04-29T03:18:49.662Z,99701.59
2023-04-29T03:23:51.117Z,99693.31
2023-04-29T03:28:52.597Z,99691.59
2023-04-29T03:33:54.081Z,99690.75
2023-04-29T03:38:55.550Z,99679.00
2023-04-29T03:44:00.720Z,99681.56
2023-04-29T03:49:02.273Z,99686.31
2023-04-29T03:54:03.799Z,99677.22
2023-04-29T03:59:05.320Z,99684.63
2023-04-29T04:04:06.989Z,99670.47
2023-04-29T04:09:08.584Z,99687.78
2023-04-29T04:14:10.402Z,99694.56
2023-04-29T04:19:11.810Z,99708.78
2023-04-29T04:24:13.241Z,99697.06
2023-04-29T04:29:14.802Z,99685.63
2023-04-29T04:34:16.213Z,99687.84
2023-04-29T04:39:17.618Z,99683.03
2023-04-29T04:44:19.027Z,99687.63
2023-04-29T04:49:20.601Z,99687.94
2023-04-29T04:54:22.024Z,99684.81
2023-04-29T04:59:23.502Z,99682.50
2023-04-29T05:04:25.216Z,99684.78
2023-04-29T05:09:26.943Z,99680.47
2023-04-29T05:14:28.622Z,99694.28
2023-04-29T05:19:30.073Z,99684.75
2023-04-29T05:24:31.699Z,99689.88
2023-04-29T05:29:33.112Z,99688.59
2023-04-29T05:34:34.529Z,99690.13
2023-04-29T05:39:35.979Z,99683.53
2023-04-29T05:44:37.448Z,99684.47
2023-04-29T05:49:39.383Z,99686.84
2023-04-29T05:54:41.588Z,99684.34
2023-04-29T05:59:43.044Z,99687.50
2023-04-29T06:04:44.607Z,99699.56
2023-04-29T06:09:46.207Z,99696.03
2023-04-29T06:14:47.638Z,99698.41
2023-04-29T06:19:49.054Z,99696.13
2023-04-29T06:24:50.469Z,99705.91
2023-04-29T06:29:52.123Z,99708.75
2023-04-29T06:34:53.664Z,99719.97
2023-04-29T06:39:55.272Z,99707.09
2023-04-29T06:44:56.789Z,99714.88
2023-04-29T06:49:58.207Z,99720.72
2023-04-29T06:55:00.027Z,99713.13
2023-04-29T07:00:01.564Z,99707.16
2023-04-29T07:05:03.041Z,99713.19
2023-04-29T07:10:04.891Z,99708.84
2023-04-29T07:15:06.941Z,99713.38
2023-04-29T07:20:08.972Z,99710.13
2023-04-29T07:25:11.143Z,99710.97
2023-04-29T07:30:12.909Z,99706.25
2023-04-29T07:35:14.474Z,99717.09
2023-04-29T07:40:15.947Z,99712.94
2023-04-29T07:45:17.566Z,99713.06
2023-04-29T07:50:19.006Z,99713.03
2023-04-29T07:55:20.496Z,99720.69
2023-04-29T08:00:22.654Z,99722.34
2023-04-29T08:05:24.646Z,99729.47
2023-04-29T08:10:27.284Z,99722.84
2023-04-29T08:15:28.728Z,99725.66
2023-04-29T08:20:30.486Z,99729.38
2023-04-29T08:25:31.892Z,99724.66
2023-04-29T08:30:33.824Z,99731.25
2023-04-29T08:35:37.673Z,99736.75
2023-04-29T08:40:44.127Z,99731.78
2023-04-29T08:45:48.529Z,99743.72
2023-04-29T08:50:49.971Z,99752.44
2023-04-29T08:55:53.334Z,99754.13
2023-04-29T09:00:54.858Z,99757.81
2023-04-29T09:06:00.755Z,99759.44
2023-04-29T09:11:02.392Z,99761.94
2023-04-29T09:16:04.229Z,99767.66
2023-04-29T09:21:15.758Z,99767.56
2023-04-29T09:26:17.472Z,99762.47
2023-04-29T09:31:27.818Z,99774.06
2023-04-29T09:36:48.511Z,99762.13
2023-04-29T09:41:52.944Z,99780.81
2023-04-29T09:47:04.639Z,99767.19
2023-04-29T09:52:14.377Z,99776.34
2023-04-29T09:57:15.931Z,99776.47
2023-04-29T10:02:18.850Z,99773.25
2023-04-29T10:07:21.532Z,99774.78
2023-04-29T10:12:26.303Z,99785.41
2023-04-29T10:18:09.450Z,99784.13
2023-04-29T10:23:11.244Z,99784.69
2023-04-29T10:28:16.720Z,99774.53
2023-04-29T10:33:19.246Z,99774.63
2023-04-29T10:38:29.677Z,99769.06
2023-04-29T10:43:31.968Z,99767.13
2023-04-29T10:48:33.442Z,99766.81
2023-04-29T10:53:35.681Z,99760.88
2023-04-29T10:58:39.408Z,99756.81
2023-04-29T11:03:50.860Z,99756.53
2023-04-29T11:09:03.724Z,99751.19
2023-04-29T11:14:05.432Z,99741.06
2023-04-29T11:19:08.463Z,99754.56
2023-04-29T11:24:09.918Z,99752.00
2023-04-29T11:29:11.494Z,99753.31
2023-04-29T11:34:13.002Z,99745.50
2023-04-29T11:39:16.913Z,99742.84
2023-04-29T11:44:22.624Z,99746.50
2023-04-29T11:49:30.486Z,99756.13
2023-04-29T11:54:32.678Z,99754.78
2023-04-29T11:59:34.143Z,99762.94
2023-04-29T12:04:45.491Z,99756.72
2023-04-29T12:09:47.342Z,99762.66
2023-04-29T12:14:49.687Z,99760.09
2023-04-29T12:19:51.323Z,99765.66
2023-04-29T12:24:54.485Z,99757.72
2023-04-29T12:29:57.445Z,99750.25
2023-04-29T12:34:58.906Z,99750.16
2023-04-29T12:40:00.371Z,99749.63
2023-04-29T12:45:01.943Z,99754.91
2023-04-29T12:50:03.729Z,99747.97
2023-04-29T12:55:06.544Z,99741.63
2023-04-29T13:00:08.672Z,99734.94
2023-04-29T13:05:12.775Z,99739.31
2023-04-29T13:10:14.393Z,99743.81
2023-04-29T13:15:15.909Z,99731.91
2023-04-29T13:20:17.457Z,99728.66
2023-04-29T13:25:18.983Z,99735.66
2023-04-29T13:30:20.455Z,99725.72
2023-04-29T13:35:21.922Z,99730.00
2023-04-29T13:40:27.482Z,99729.13
2023-04-29T13:45:29.561Z,99734.31
2023-04-29T14:01:10.430Z,99717.44
2023-04-29T14:06:01.304Z,99732.28
2023-04-29T14:11:02.736Z,99729.78
2023-04-29T14:16:06.625Z,99733.25
2023-04-29T14:21:08.195Z,99737.50
2023-04-29T14:26:26.573Z,99735.66
2023-04-29T14:31:31.423Z,99739.94
2023-04-29T14:36:33.126Z,99741.75
2023-04-29T14:41:34.578Z,99756.78
2023-04-29T14:46:36.067Z,99732.75
2023-04-29T14:51:37.499Z,99746.06
2023-04-29T14:56:38.925Z,99741.34
2023-04-29T15:01:40.538Z,99761.59
2023-04-29T15:06:42.053Z,99779.44
2023-04-29T15:11:43.573Z,99797.75
2023-04-29T15:16:45.078Z,99802.47
2023-04-29T15:21:46.557Z,99815.03
2023-04-29T15:26:48.342Z,99811.31
2023-04-29T15:31:49.878Z,99821.28
2023-04-29T15:36:51.445Z,99831.53
2023-04-29T15:41:53.904Z,99840.94
2023-04-29T15:46:55.366Z,99837.03
2023-04-29T15:51:56.822Z,99841.25
2023-04-29T15:56:58.236Z,99842.75
2023-04-29T16:01:59.694Z,99850.03
2023-04-29T16:07:01.582Z,99853.34
2023-04-29T16:12:03.174Z,99854.34
2023-04-29T16:17:05.681Z,99854.81
2023-04-29T16:22:07.429Z,99852.88
2023-04-29T16:27:08.851Z,99851.56
2023-04-29T16:32:10.271Z,99866.56
2023-04-29T16:37:12.676Z,99882.13
2023-04-29T16:42:14.282Z,99877.75
2023-04-29T16:47:15.772Z,99879.69
2023-04-29T16:52:17.742Z,99881.94
2023-04-29T16:57:19.268Z,99883.66
2023-04-29T17:02:21.097Z,99883.97
2023-04-29T17:07:22.701Z,99895.72
2023-04-29T17:12:24.120Z,99893.00
2023-04-29T17:17:25.626Z,99902.22
2023-04-29T17:22:27.086Z,99908.88
2023-04-29T17:27:28.502Z,99919.56
2023-04-29T17:32:30.150Z,99927.91
2023-04-29T17:37:31.610Z,99947.28
2023-04-29T17:42:33.069Z,99949.03
2023-04-29T17:47:35.458Z,99966.72
2023-04-29T17:52:37.049Z,99972.75
2023-04-29T17:57:40.235Z,99968.50
2023-04-29T18:02:42.228Z,99980.34
2023-04-29T18:07:43.671Z,99974.50
2023-04-29T18:12:45.087Z,99977.03
2023-04-29T18:17:46.542Z,99983.03
2023-04-29T18:22:48.761Z,99991.81
2023-04-29T18:27:51.473Z,100001.44
2023-04-29T18:32:53.054Z,100008.72
2023-04-29T18:37:54.797Z,100021.00
2023-04-29T18:42:56.197Z,100029.16
2023-04-29T18:47:57.652Z,100039.28
2023-04-29T18:52:59.117Z,100048.25
2023-04-29T18:58:00.622Z,100058.47
2023-04-29T19:03:02.106Z,100059.53
2023-04-29T19:08:03.666Z,100064.69
2023-04-29T19:13:05.108Z,100070.31
2023-04-29T19:18:07.061Z,100068.66
2023-04-29T19:23:08.569Z,100071.66
2023-04-29T19:28:10.154Z,100074.19
2023-04-29T19:33:11.604Z,100089.34
2023-04-29T19:38:13.050Z,100090.75
2023-04-29T19:43:14.545Z,100088.44
2023-04-29T19:48:16.371Z,100090.16
2023-04-29T19:53:18.005Z,100096.13
2023-04-29T19:58:19.846Z,100091.63
2023-04-29T20:03:21.701Z,100098.50
2023-04-29T20:08:23.134Z,100110.66
2023-04-29T20:13:24.609Z,100110.63
2023-04-29T20:18:26.367Z,100120.34
2023-04-29T20:23:27.776Z,100123.41
2023-04-29T20:28:29.274Z,100124.31
2023-04-29T20:33:30.912Z,100121.22
2023-04-29T20:38:36.166Z,100123.88
2023-04-29T20:43:37.728Z,100128.69
2023-04-29T20:48:39.168Z,100142.13
2023-04-29T20:53:40.691Z,100140.28
2023-04-29T20:58:42.118Z,100144.78
2023-04-29T21:03:43.522Z,100146.94
2023-04-29T21:08:45.035Z,100153.72
2023-04-29T21:13:50.108Z,100164.03
2023-04-29T21:18:51.574Z,100170.78
2023-04-29T21:23:52.996Z,100175.94
2023-04-29T21:28:54.734Z,100182.16
2023-04-29T21:33:56.167Z,100192.25
2023-04-29T21:38:57.647Z,100187.25
2023-04-29T21:44:00.941Z,100197.19
2023-04-29T21:49:03.979Z,100198.34
2023-04-29T21:54:08.427Z,100198.03
2023-04-29T21:59:09.971Z,100210.03
2023-04-29T22:04:11.665Z,100227.13
2023-04-29T22:09:13.098Z,100227.63
2023-04-29T22:14:14.532Z,100222.09
2023-04-29T22:19:15.978Z,100235.81
2023-04-29T22:24:17.427Z,100236.25
2023-04-29T22:29:20.070Z,100249.53
2023-04-29T22:34:21.484Z,100236.66
2023-04-29T22:39:22.972Z,100251.66
2023-04-29T22:44:24.475Z,100259.91
2023-04-29T22:49:26.011Z,100262.56
2023-04-29T22:54:28.765Z,100276.53
2023-04-29T22:59:30.178Z,100270.56
2023-04-29T23:04:33.306Z,100285.72
2023-04-29T23:09:34.771Z,100281.06
2023-04-29T23:14:36.176Z,100289.94
2023-04-29T23:19:37.670Z,100293.66
2023-04-29T23:24:40.196Z,100300.38
2023-04-29T23:29:41.759Z,100294.94
2023-04-29T23:34:43.232Z,100300.38
2023-04-29T23:39:44.707Z,100296.81
2023-04-29T23:44:46.181Z,100302.75
2023-04-29T23:49:47.623Z,100306.84
2023-04-29T23:54:49.185Z,100306.50
2023-04-29T23:59:50.710Z,100306.19
